• Join FlightAware (Why Join?)
  • Login
  • US Flag 
05:52AM EDT


 

Airport Tracker/Info


-or-


 

Live Flight TrackerFlight Track Log ✈ N214GF ✈ 24-Aug-2014 ✈ KGRR - KPWK

Flight Track Log - Related Links

Times and Time Zones

All times are in EDT time to prevent confusion due to time zone crossing. See the N214GF flight status page for this flight to view local times or setup timezone preferences in your user account.

Time Position Orientation Groundspeed Altitude Reporting Facility
EDT Latitude Longitude Course Direction KTS MPH feet Rate Location/Type
06:24PM 42.8975 -85.5781 260° West 135 155 2,700  Level Chicago Center
06:26PM 42.8908 -85.6294 260° West 135 155 3,400 720 Climbing Chicago Center
06:27PM 42.8844 -85.6808 260° West 136 157 4,200 720 Climbing Chicago Center
06:28PM 42.8783 -85.7286 260° West 134 154 5,000 780 Climbing Chicago Center
06:29PM 42.8297 -85.8791 260° West  Level FlightAware Approximate
06:29PM 42.8717 -85.7858 261° West 131 151 5,900  Level Chicago Center
06:30PM 42.8222 -85.9392 260° West  Level FlightAware Approximate
06:30PM 42.8664 -85.8342 262° West 130 150 6,600  Level Chicago Center
06:31PM 42.8606 -85.8839 261° West 130 150 7,300 600 Climbing Chicago Center
06:32PM 42.8550 -85.9350 262° West 131 151 7,900 540 Climbing Chicago Center
06:33PM 42.8486 -85.9864 260° West 134 154 8,500 600 Climbing Chicago Center
06:35PM 42.8358 -86.0906 261° West 137 158 9,900 660 Climbing Chicago Center
06:36PM 42.8292 -86.1511 261° West 136 157 10,700 660 Climbing Chicago Center
06:37PM 42.8222 -86.2036 260° West 136 157 11,300 420 Climbing Chicago Center
06:39PM 42.8086 -86.3142 261° West 145 167 12,100 240 Climbing Chicago Center
06:40PM 42.8011 -86.3775 261° West 163 188 12,100  Level Chicago Center
06:42PM 42.7836 -86.5214 260° West 174 200 12,100  Level Chicago Center
06:43PM 42.7744 -86.5875 259° West 176 203 12,100  Level Chicago Center
06:44PM 42.7661 -86.6525 260° West 175 201 12,100  Level Chicago Center
06:46PM 42.7500 -86.7839 260° West 175 201 12,100  Level Chicago Center
06:47PM 42.7403 -86.8628 261° West 176 203 12,100  Level Chicago Center
06:48PM 42.7314 -86.9281 260° West 176 203 12,100  Level Chicago Center
06:49PM 42.7222 -86.9939 259° West 177 204 12,100  Level Chicago Center
06:51PM 42.7167 -87.1000 266° West 176 203 12,100  Level KMKE
06:52PM 42.7000 -87.1667 251° West 174 200 12,100 -120 Level KMKE
06:52PM 42.6969 -87.1889 259° West 175 201 12,000  Descending Chicago Center
06:55PM 42.6833 -87.3500 263° West 173 199 12,100  Climbing KMKE
06:56PM 42.6883 -87.3936 279° West 173 199 12,000 -360 Descending Chicago Center
06:57PM 42.6833 -87.5333 267° West 189 217 11,200 -480 Descending Chicago TRACON
06:58PM 42.6833 -87.6000 270° West 199 229 10,600 -720 Descending Chicago TRACON
07:00PM 42.6233 -87.6322 202° Southwest 201 231 9,700 -840 Descending Chicago Center
07:01PM 42.5886 -87.6894 231° Southwest 202 232 8,800 -780 Descending Chicago Center
07:02PM 42.5569 -87.7458 233° Southwest 193 222 8,200 -600 Descending Chicago Center
07:03PM 42.5286 -87.7919 230° Southwest 187 215 7,600 -720 Descending Chicago Center
07:04PM 42.4878 -87.8547 229° Southwest 185 213 6,800 -780 Descending Chicago Center
07:05PM 42.4333 -87.9333 227° Southwest 182 209 5,600 -780 Descending Chicago TRACON
07:07PM 42.3833 -87.9833 216° Southwest 178 205 4,800 -780 Descending Chicago TRACON
07:07PM 42.3500 -88.0000 200° South 178 205 4,200 -720 Descending Chicago TRACON
07:08PM 42.3231 -87.9983 177° South 175 201 3,800 -780 Descending Chicago Center
07:09PM 42.2781 -87.9922 174° South 168 193 3,000 -720 Descending Chicago Center
07:10PM 42.2344 -87.9669 157° South 160 184 2,400 -420 Descending Chicago Center
07:11PM 42.2039 -87.9500 158° South 140 161 2,200 -420 Descending Chicago Center
07:14PM 42.1333 -87.9167 161° South 99 114 1,000 -540 Descending Chicago TRACON